sensor_id;sensor_type;location;lat;lon;timestamp;P1;durP1;ratioP1;P2;durP2;ratioP2
10150;SDS011;5116;52.318;4.644;2022-10-17T00:00:41;1.40;;;1.30;;
10150;SDS011;5116;52.318;4.644;2022-10-17T00:03:08;1.50;;;1.40;;
10150;SDS011;5116;52.318;4.644;2022-10-17T00:05:40;1.00;;;1.00;;
10150;SDS011;5116;52.318;4.644;2022-10-17T00:08:08;1.30;;;1.20;;
10150;SDS011;5116;52.318;4.644;2022-10-17T00:10:36;1.50;;;1.40;;
10150;SDS011;5116;52.318;4.644;2022-10-17T00:13:03;1.37;;;1.27;;
10150;SDS011;5116;52.318;4.644;2022-10-17T00:15:31;1.60;;;1.40;;
10150;SDS011;5116;52.318;4.644;2022-10-17T00:17:58;1.60;;;1.43;;
10150;SDS011;5116;52.318;4.644;2022-10-17T00:20:26;1.97;;;1.77;;
10150;SDS011;5116;52.318;4.644;2022-10-17T00:22:55;1.27;;;1.17;;
10150;SDS011;5116;52.318;4.644;2022-10-17T00:25:23;2.93;;;1.87;;
10150;SDS011;5116;52.318;4.644;2022-10-17T00:27:50;1.63;;;1.40;;
10150;SDS011;5116;52.318;4.644;2022-10-17T00:30:17;2.47;;;1.63;;
10150;SDS011;5116;52.318;4.644;2022-10-17T00:32:45;1.40;;;1.30;;
10150;SDS011;5116;52.318;4.644;2022-10-17T00:35:12;1.87;;;1.73;;
10150;SDS011;5116;52.318;4.644;2022-10-17T00:37:40;1.47;;;1.37;;
10150;SDS011;5116;52.318;4.644;2022-10-17T00:40:07;1.60;;;1.30;;
10150;SDS011;5116;52.318;4.644;2022-10-17T00:42:35;1.60;;;1.50;;
10150;SDS011;5116;52.318;4.644;2022-10-17T00:47:30;1.50;;;1.30;;
10150;SDS011;5116;52.318;4.644;2022-10-17T00:49:57;1.20;;;1.20;;
10150;SDS011;5116;52.318;4.644;2022-10-17T00:52:30;1.40;;;1.30;;
10150;SDS011;5116;52.318;4.644;2022-10-17T00:55:41;1.63;;;1.53;;
10150;SDS011;5116;52.318;4.644;2022-10-17T00:57:48;1.40;;;1.30;;
10150;SDS011;5116;52.318;4.644;2022-10-17T01:00:17;1.60;;;1.50;;
10150;SDS011;5116;52.318;4.644;2022-10-17T01:02:45;1.83;;;1.40;;
10150;SDS011;5116;52.318;4.644;2022-10-17T01:05:12;1.67;;;1.37;;
10150;SDS011;5116;52.318;4.644;2022-10-17T01:07:41;1.43;;;1.33;;
10150;SDS011;5116;52.318;4.644;2022-10-17T01:10:09;1.60;;;1.40;;
10150;SDS011;5116;52.318;4.644;2022-10-17T01:15:09;1.60;;;1.50;;
10150;SDS011;5116;52.318;4.644;2022-10-17T01:23:25;1.97;;;1.60;;
10150;SDS011;5116;52.318;4.644;2022-10-17T01:25:27;1.83;;;1.60;;
10150;SDS011;5116;52.318;4.644;2022-10-17T01:28:00;2.23;;;1.60;;
10150;SDS011;5116;52.318;4.644;2022-10-17T01:36:12;1.40;;;1.30;;
10150;SDS011;5116;52.318;4.644;2022-10-17T01:38:49;1.80;;;1.70;;
10150;SDS011;5116;52.318;4.644;2022-10-17T01:44:10;1.60;;;1.50;;
10150;SDS011;5116;52.318;4.644;2022-10-17T01:46:40;1.77;;;1.50;;
10150;SDS011;5116;52.318;4.644;2022-10-17T01:49:10;2.63;;;2.07;;
10150;SDS011;5116;52.318;4.644;2022-10-17T01:51:43;1.73;;;1.57;;
10150;SDS011;5116;52.318;4.644;2022-10-17T01:54:17;1.73;;;1.60;;
10150;SDS011;5116;52.318;4.644;2022-10-17T01:56:47;2.33;;;1.83;;
10150;SDS011;5116;52.318;4.644;2022-10-17T01:59:21;1.87;;;1.43;;
10150;SDS011;5116;52.318;4.644;2022-10-17T02:01:50;1.67;;;1.57;;
10150;SDS011;5116;52.318;4.644;2022-10-17T02:04:18;3.07;;;2.07;;
10150;SDS011;5116;52.318;4.644;2022-10-17T02:06:46;1.70;;;1.60;;
10150;SDS011;5116;52.318;4.644;2022-10-17T02:09:21;3.40;;;2.10;;
10150;SDS011;5116;52.318;4.644;2022-10-17T02:11:57;1.77;;;1.67;;
10150;SDS011;5116;52.318;4.644;2022-10-17T02:14:31;1.70;;;1.60;;
10150;SDS011;5116;52.318;4.644;2022-10-17T02:17:07;2.07;;;1.90;;
10150;SDS011;5116;52.318;4.644;2022-10-17T02:19:45;1.70;;;1.60;;
10150;SDS011;5116;52.318;4.644;2022-10-17T02:32:46;1.47;;;1.37;;
10150;SDS011;5116;52.318;4.644;2022-10-17T02:35:19;1.60;;;1.50;;
10150;SDS011;5116;52.318;4.644;2022-10-17T02:37:47;1.53;;;1.40;;
10150;SDS011;5116;52.318;4.644;2022-10-17T02:40:16;1.80;;;1.70;;
10150;SDS011;5116;52.318;4.644;2022-10-17T02:42:44;2.20;;;1.80;;
10150;SDS011;5116;52.318;4.644;2022-10-17T02:45:13;1.80;;;1.67;;
10150;SDS011;5116;52.318;4.644;2022-10-17T02:50:21;1.63;;;1.47;;
10150;SDS011;5116;52.318;4.644;2022-10-17T02:52:54;2.20;;;2.00;;
10150;SDS011;5116;52.318;4.644;2022-10-17T02:55:23;1.70;;;1.60;;
10150;SDS011;5116;52.318;4.644;2022-10-17T02:57:52;1.87;;;1.77;;
10150;SDS011;5116;52.318;4.644;2022-10-17T03:00:20;2.30;;;1.80;;
10150;SDS011;5116;52.318;4.644;2022-10-17T03:02:49;1.73;;;1.63;;
10150;SDS011;5116;52.318;4.644;2022-10-17T03:05:19;2.20;;;2.00;;
10150;SDS011;5116;52.318;4.644;2022-10-17T03:07:46;2.20;;;2.00;;
10150;SDS011;5116;52.318;4.644;2022-10-17T03:10:13;2.20;;;2.00;;
10150;SDS011;5116;52.318;4.644;2022-10-17T03:12:41;4.83;;;1.90;;
10150;SDS011;5116;52.318;4.644;2022-10-17T03:15:09;2.00;;;1.80;;
10150;SDS011;5116;52.318;4.644;2022-10-17T03:17:37;4.03;;;2.40;;
10150;SDS011;5116;52.318;4.644;2022-10-17T03:20:06;3.50;;;2.10;;
10150;SDS011;5116;52.318;4.644;2022-10-17T03:22:33;2.27;;;2.07;;
10150;SDS011;5116;52.318;4.644;2022-10-17T03:25:02;2.07;;;1.80;;
10150;SDS011;5116;52.318;4.644;2022-10-17T03:27:33;2.07;;;1.70;;
10150;SDS011;5116;52.318;4.644;2022-10-17T03:30:00;1.97;;;1.60;;
10150;SDS011;5116;52.318;4.644;2022-10-17T03:32:29;2.00;;;1.70;;
10150;SDS011;5116;52.318;4.644;2022-10-17T03:34:58;2.77;;;2.30;;
10150;SDS011;5116;52.318;4.644;2022-10-17T03:37:26;2.30;;;2.10;;
10150;SDS011;5116;52.318;4.644;2022-10-17T03:39:54;2.13;;;1.93;;
10150;SDS011;5116;52.318;4.644;2022-10-17T03:42:21;2.20;;;2.00;;
10150;SDS011;5116;52.318;4.644;2022-10-17T03:44:49;2.50;;;2.10;;
10150;SDS011;5116;52.318;4.644;2022-10-17T03:47:16;1.83;;;1.67;;
10150;SDS011;5116;52.318;4.644;2022-10-17T03:49:44;2.20;;;1.73;;
10150;SDS011;5116;52.318;4.644;2022-10-17T03:52:13;2.43;;;2.23;;
10150;SDS011;5116;52.318;4.644;2022-10-17T03:54:40;1.80;;;1.70;;
10150;SDS011;5116;52.318;4.644;2022-10-17T03:57:08;2.30;;;2.10;;
10150;SDS011;5116;52.318;4.644;2022-10-17T03:59:35;2.27;;;1.90;;
10150;SDS011;5116;52.318;4.644;2022-10-17T04:02:11;2.10;;;1.90;;
10150;SDS011;5116;52.318;4.644;2022-10-17T04:04:39;2.40;;;2.20;;
10150;SDS011;5116;52.318;4.644;2022-10-17T04:07:06;2.53;;;2.00;;
10150;SDS011;5116;52.318;4.644;2022-10-17T04:09:37;2.60;;;2.00;;
10150;SDS011;5116;52.318;4.644;2022-10-17T04:12:11;1.90;;;1.80;;
10150;SDS011;5116;52.318;4.644;2022-10-17T04:14:39;2.27;;;2.07;;
10150;SDS011;5116;52.318;4.644;2022-10-17T04:17:06;2.67;;;2.20;;
10150;SDS011;5116;52.318;4.644;2022-10-17T04:19:35;1.87;;;1.60;;
10150;SDS011;5116;52.318;4.644;2022-10-17T04:22:02;2.20;;;2.00;;
10150;SDS011;5116;52.318;4.644;2022-10-17T04:24:33;2.03;;;1.83;;
10150;SDS011;5116;52.318;4.644;2022-10-17T04:27:08;1.67;;;1.57;;
10150;SDS011;5116;52.318;4.644;2022-10-17T04:29:39;2.33;;;1.97;;
10150;SDS011;5116;52.318;4.644;2022-10-17T04:32:15;2.30;;;1.80;;
10150;SDS011;5116;52.318;4.644;2022-10-17T04:34:47;1.60;;;1.50;;
10150;SDS011;5116;52.318;4.644;2022-10-17T04:37:20;3.27;;;2.50;;
10150;SDS011;5116;52.318;4.644;2022-10-17T04:39:49;2.30;;;2.10;;
10150;SDS011;5116;52.318;4.644;2022-10-17T04:42:17;2.40;;;2.10;;
10150;SDS011;5116;52.318;4.644;2022-10-17T04:44:45;2.10;;;1.90;;
10150;SDS011;5116;52.318;4.644;2022-10-17T04:47:15;2.23;;;2.03;;
10150;SDS011;5116;52.318;4.644;2022-10-17T04:49:42;2.63;;;1.97;;
10150;SDS011;5116;52.318;4.644;2022-10-17T04:52:12;1.90;;;1.70;;
10150;SDS011;5116;52.318;4.644;2022-10-17T04:54:42;1.93;;;1.60;;
10150;SDS011;5116;52.318;4.644;2022-10-17T04:57:11;3.17;;;2.13;;
10150;SDS011;5116;52.318;4.644;2022-10-17T04:59:41;1.70;;;1.50;;
10150;SDS011;5116;52.318;4.644;2022-10-17T05:02:18;2.30;;;1.80;;
10150;SDS011;5116;52.318;4.644;2022-10-17T05:04:46;2.33;;;2.10;;
10150;SDS011;5116;52.318;4.644;2022-10-17T05:07:14;2.73;;;1.97;;
10150;SDS011;5116;52.318;4.644;2022-10-17T05:10:00;1.83;;;1.73;;
10150;SDS011;5116;52.318;4.644;2022-10-17T05:12:29;1.70;;;1.60;;
10150;SDS011;5116;52.318;4.644;2022-10-17T05:14:57;3.57;;;2.20;;
10150;SDS011;5116;52.318;4.644;2022-10-17T05:17:26;2.20;;;2.00;;
10150;SDS011;5116;52.318;4.644;2022-10-17T05:19:53;2.60;;;2.40;;
10150;SDS011;5116;52.318;4.644;2022-10-17T05:22:21;2.00;;;1.80;;
10150;SDS011;5116;52.318;4.644;2022-10-17T05:24:49;1.97;;;1.80;;
10150;SDS011;5116;52.318;4.644;2022-10-17T05:27:17;2.20;;;1.80;;
10150;SDS011;5116;52.318;4.644;2022-10-17T05:29:44;2.50;;;2.30;;
10150;SDS011;5116;52.318;4.644;2022-10-17T05:32:18;4.40;;;2.03;;
10150;SDS011;5116;52.318;4.644;2022-10-17T05:34:46;2.10;;;1.90;;
10150;SDS011;5116;52.318;4.644;2022-10-17T05:37:14;2.30;;;2.10;;
10150;SDS011;5116;52.318;4.644;2022-10-17T05:39:45;2.93;;;2.00;;
10150;SDS011;5116;52.318;4.644;2022-10-17T05:42:17;1.90;;;1.80;;
10150;SDS011;5116;52.318;4.644;2022-10-17T05:44:46;2.33;;;2.13;;
10150;SDS011;5116;52.318;4.644;2022-10-17T05:47:15;2.23;;;2.03;;
10150;SDS011;5116;52.318;4.644;2022-10-17T05:49:43;2.83;;;2.13;;
10150;SDS011;5116;52.318;4.644;2022-10-17T05:52:18;2.87;;;2.13;;
10150;SDS011;5116;52.318;4.644;2022-10-17T05:54:59;2.17;;;1.97;;
10150;SDS011;5116;52.318;4.644;2022-10-17T05:57:27;2.53;;;1.97;;
10150;SDS011;5116;52.318;4.644;2022-10-17T05:59:55;1.97;;;1.87;;
10150;SDS011;5116;52.318;4.644;2022-10-17T06:02:22;2.27;;;2.00;;
10150;SDS011;5116;52.318;4.644;2022-10-17T06:04:50;1.67;;;1.57;;
10150;SDS011;5116;52.318;4.644;2022-10-17T06:07:19;1.90;;;1.63;;
10150;SDS011;5116;52.318;4.644;2022-10-17T06:09:47;2.47;;;1.73;;
10150;SDS011;5116;52.318;4.644;2022-10-17T06:12:15;2.10;;;1.90;;
10150;SDS011;5116;52.318;4.644;2022-10-17T06:14:43;2.37;;;2.17;;
10150;SDS011;5116;52.318;4.644;2022-10-17T06:17:12;2.27;;;2.00;;
10150;SDS011;5116;52.318;4.644;2022-10-17T06:19:42;2.47;;;2.27;;
10150;SDS011;5116;52.318;4.644;2022-10-17T06:22:12;2.87;;;2.40;;
10150;SDS011;5116;52.318;4.644;2022-10-17T06:24:40;3.13;;;2.33;;
10150;SDS011;5116;52.318;4.644;2022-10-17T06:27:07;2.70;;;2.10;;
10150;SDS011;5116;52.318;4.644;2022-10-17T06:29:39;2.00;;;1.77;;
10150;SDS011;5116;52.318;4.644;2022-10-17T06:32:06;1.83;;;1.73;;
10150;SDS011;5116;52.318;4.644;2022-10-17T06:34:40;2.60;;;2.13;;
10150;SDS011;5116;52.318;4.644;2022-10-17T06:37:08;2.77;;;2.33;;
10150;SDS011;5116;52.318;4.644;2022-10-17T06:39:37;2.60;;;2.30;;
10150;SDS011;5116;52.318;4.644;2022-10-17T06:42:10;2.97;;;1.87;;
10150;SDS011;5116;52.318;4.644;2022-10-17T06:44:53;2.43;;;2.23;;
10150;SDS011;5116;52.318;4.644;2022-10-17T06:47:35;2.40;;;2.07;;
10150;SDS011;5116;52.318;4.644;2022-10-17T06:50:21;2.63;;;2.43;;
10150;SDS011;5116;52.318;4.644;2022-10-17T06:53:01;1.97;;;1.77;;
10150;SDS011;5116;52.318;4.644;2022-10-17T06:55:52;3.00;;;2.20;;
10150;SDS011;5116;52.318;4.644;2022-10-17T06:58:36;2.87;;;2.47;;
10150;SDS011;5116;52.318;4.644;2022-10-17T07:01:12;2.20;;;2.00;;
10150;SDS011;5116;52.318;4.644;2022-10-17T07:03:40;2.33;;;1.83;;
10150;SDS011;5116;52.318;4.644;2022-10-17T07:06:09;2.27;;;1.90;;
10150;SDS011;5116;52.318;4.644;2022-10-17T07:08:42;2.50;;;2.23;;
10150;SDS011;5116;52.318;4.644;2022-10-17T07:11:17;4.63;;;2.23;;
10150;SDS011;5116;52.318;4.644;2022-10-17T07:13:46;2.37;;;2.10;;
10150;SDS011;5116;52.318;4.644;2022-10-17T07:16:14;3.90;;;2.90;;
10150;SDS011;5116;52.318;4.644;2022-10-17T07:18:47;1.87;;;1.73;;
10150;SDS011;5116;52.318;4.644;2022-10-17T07:21:16;2.37;;;2.10;;
10150;SDS011;5116;52.318;4.644;2022-10-17T07:23:43;2.47;;;2.20;;
10150;SDS011;5116;52.318;4.644;2022-10-17T07:26:12;1.70;;;1.60;;
10150;SDS011;5116;52.318;4.644;2022-10-17T07:28:41;2.17;;;1.97;;
10150;SDS011;5116;52.318;4.644;2022-10-17T07:31:26;2.50;;;1.87;;
10150;SDS011;5116;52.318;4.644;2022-10-17T07:33:53;2.80;;;2.10;;
10150;SDS011;5116;52.318;4.644;2022-10-17T07:36:20;2.17;;;1.97;;
10150;SDS011;5116;52.318;4.644;2022-10-17T07:38:48;2.63;;;2.00;;
10150;SDS011;5116;52.318;4.644;2022-10-17T07:41:17;2.10;;;1.90;;
10150;SDS011;5116;52.318;4.644;2022-10-17T07:43:48;3.23;;;2.10;;
10150;SDS011;5116;52.318;4.644;2022-10-17T07:46:19;2.83;;;2.47;;
10150;SDS011;5116;52.318;4.644;2022-10-17T07:48:46;2.63;;;2.07;;
10150;SDS011;5116;52.318;4.644;2022-10-17T07:51:14;3.37;;;1.70;;
10150;SDS011;5116;52.318;4.644;2022-10-17T07:53:42;1.60;;;1.50;;
10150;SDS011;5116;52.318;4.644;2022-10-17T07:56:14;2.20;;;2.00;;
10150;SDS011;5116;52.318;4.644;2022-10-17T07:58:41;2.27;;;2.00;;
10150;SDS011;5116;52.318;4.644;2022-10-17T08:01:09;3.27;;;1.97;;
10150;SDS011;5116;52.318;4.644;2022-10-17T08:03:44;2.20;;;1.70;;
10150;SDS011;5116;52.318;4.644;2022-10-17T08:06:12;2.40;;;2.20;;
10150;SDS011;5116;52.318;4.644;2022-10-17T08:08:39;2.03;;;1.93;;
10150;SDS011;5116;52.318;4.644;2022-10-17T08:11:07;2.47;;;2.13;;
10150;SDS011;5116;52.318;4.644;2022-10-17T08:13:35;2.37;;;2.17;;
10150;SDS011;5116;52.318;4.644;2022-10-17T08:16:04;2.13;;;1.90;;
10150;SDS011;5116;52.318;4.644;2022-10-17T08:18:33;2.87;;;2.17;;
10150;SDS011;5116;52.318;4.644;2022-10-17T08:21:01;2.13;;;1.83;;
10150;SDS011;5116;52.318;4.644;2022-10-17T08:23:31;2.73;;;1.77;;
10150;SDS011;5116;52.318;4.644;2022-10-17T08:25:59;2.30;;;2.10;;
10150;SDS011;5116;52.318;4.644;2022-10-17T08:28:27;2.30;;;2.07;;
10150;SDS011;5116;52.318;4.644;2022-10-17T08:31:10;2.43;;;2.03;;
10150;SDS011;5116;52.318;4.644;2022-10-17T08:33:38;2.27;;;1.90;;
10150;SDS011;5116;52.318;4.644;2022-10-17T08:36:05;2.33;;;2.13;;
10150;SDS011;5116;52.318;4.644;2022-10-17T08:38:33;3.87;;;1.80;;
10150;SDS011;5116;52.318;4.644;2022-10-17T08:41:03;2.23;;;1.90;;
10150;SDS011;5116;52.318;4.644;2022-10-17T08:46:10;2.67;;;2.03;;
10150;SDS011;5116;52.318;4.644;2022-10-17T08:48:39;2.07;;;1.80;;
10150;SDS011;5116;52.318;4.644;2022-10-17T08:51:16;2.13;;;1.93;;
10150;SDS011;5116;52.318;4.644;2022-10-17T08:53:51;2.83;;;2.00;;
10150;SDS011;5116;52.318;4.644;2022-10-17T08:56:25;2.40;;;2.20;;
10150;SDS011;5116;52.318;4.644;2022-10-17T08:59:17;2.03;;;1.83;;
10150;SDS011;5116;52.318;4.644;2022-10-17T09:01:50;2.20;;;2.00;;
10150;SDS011;5116;52.318;4.644;2022-10-17T09:04:33;2.27;;;2.07;;
10150;SDS011;5116;52.318;4.644;2022-10-17T09:09:49;1.67;;;1.57;;
10150;SDS011;5116;52.318;4.644;2022-10-17T09:13:02;2.27;;;1.90;;
10150;SDS011;5116;52.318;4.644;2022-10-17T09:17:49;1.90;;;1.80;;
10150;SDS011;5116;52.318;4.644;2022-10-17T09:20:21;1.70;;;1.60;;
10150;SDS011;5116;52.318;4.644;2022-10-17T09:22:57;2.57;;;2.10;;
10150;SDS011;5116;52.318;4.644;2022-10-17T09:25:25;3.43;;;2.00;;
10150;SDS011;5116;52.318;4.644;2022-10-17T09:27:56;1.83;;;1.67;;
10150;SDS011;5116;52.318;4.644;2022-10-17T09:33:19;1.70;;;1.60;;
10150;SDS011;5116;52.318;4.644;2022-10-17T09:36:02;1.93;;;1.70;;
10150;SDS011;5116;52.318;4.644;2022-10-17T09:38:37;2.23;;;1.90;;
10150;SDS011;5116;52.318;4.644;2022-10-17T09:41:05;1.57;;;1.47;;
10150;SDS011;5116;52.318;4.644;2022-10-17T09:43:56;1.63;;;1.53;;
10150;SDS011;5116;52.318;4.644;2022-10-17T09:46:37;2.13;;;1.90;;
10150;SDS011;5116;52.318;4.644;2022-10-17T09:49:14;1.60;;;1.50;;
10150;SDS011;5116;52.318;4.644;2022-10-17T09:51:43;2.17;;;1.97;;
10150;SDS011;5116;52.318;4.644;2022-10-17T09:54:14;1.70;;;1.60;;
10150;SDS011;5116;52.318;4.644;2022-10-17T09:57:04;1.93;;;1.73;;
10150;SDS011;5116;52.318;4.644;2022-10-17T09:59:33;1.70;;;1.53;;
10150;SDS011;5116;52.318;4.644;2022-10-17T10:02:08;2.13;;;1.93;;
10150;SDS011;5116;52.318;4.644;2022-10-17T10:04:43;2.47;;;1.70;;
10150;SDS011;5116;52.318;4.644;2022-10-17T10:07:38;1.60;;;1.50;;
10150;SDS011;5116;52.318;4.644;2022-10-17T10:10:07;1.60;;;1.50;;
10150;SDS011;5116;52.318;4.644;2022-10-17T10:12:36;1.40;;;1.30;;
10150;SDS011;5116;52.318;4.644;2022-10-17T10:15:48;1.43;;;1.33;;
10150;SDS011;5116;52.318;4.644;2022-10-17T10:17:54;1.70;;;1.47;;
10150;SDS011;5116;52.318;4.644;2022-10-17T10:20:27;1.23;;;1.13;;
10150;SDS011;5116;52.318;4.644;2022-10-17T10:25:31;1.10;;;1.10;;
10150;SDS011;5116;52.318;4.644;2022-10-17T10:27:59;2.95;;;1.45;;
10150;SDS011;5116;52.318;4.644;2022-10-17T10:30:28;2.27;;;1.20;;
10150;SDS011;5116;52.318;4.644;2022-10-17T10:33:00;1.03;;;1.03;;
10150;SDS011;5116;52.318;4.644;2022-10-17T10:35:31;1.23;;;1.13;;
10150;SDS011;5116;52.318;4.644;2022-10-17T10:38:00;1.27;;;1.17;;
10150;SDS011;5116;52.318;4.644;2022-10-17T10:40:31;1.40;;;1.30;;
10150;SDS011;5116;52.318;4.644;2022-10-17T10:43:00;1.20;;;1.10;;
10150;SDS011;5116;52.318;4.644;2022-10-17T10:48:23;1.47;;;1.37;;
10150;SDS011;5116;52.318;4.644;2022-10-17T10:51:11;1.20;;;1.20;;
10150;SDS011;5116;52.318;4.644;2022-10-17T10:53:42;1.30;;;1.20;;
10150;SDS011;5116;52.318;4.644;2022-10-17T10:56:16;2.03;;;1.17;;
10150;SDS011;5116;52.318;4.644;2022-10-17T11:01:23;1.43;;;1.33;;
10150;SDS011;5116;52.318;4.644;2022-10-17T11:03:59;1.40;;;1.30;;
10150;SDS011;5116;52.318;4.644;2022-10-17T11:06:28;1.33;;;1.23;;
10150;SDS011;5116;52.318;4.644;2022-10-17T11:09:30;1.33;;;1.23;;
10150;SDS011;5116;52.318;4.644;2022-10-17T11:12:04;1.30;;;1.20;;
10150;SDS011;5116;52.318;4.644;2022-10-17T11:14:48;1.30;;;1.20;;
10150;SDS011;5116;52.318;4.644;2022-10-17T11:17:23;1.23;;;1.13;;
10150;SDS011;5116;52.318;4.644;2022-10-17T11:20:02;2.13;;;1.17;;
10150;SDS011;5116;52.318;4.644;2022-10-17T11:22:35;1.50;;;1.40;;
10150;SDS011;5116;52.318;4.644;2022-10-17T11:25:12;1.40;;;1.30;;
10150;SDS011;5116;52.318;4.644;2022-10-17T11:27:41;1.23;;;1.17;;
10150;SDS011;5116;52.318;4.644;2022-10-17T11:30:11;1.13;;;1.10;;
10150;SDS011;5116;52.318;4.644;2022-10-17T11:32:43;0.97;;;0.97;;
10150;SDS011;5116;52.318;4.644;2022-10-17T11:35:19;0.87;;;0.87;;
10150;SDS011;5116;52.318;4.644;2022-10-17T11:37:52;1.30;;;1.20;;
10150;SDS011;5116;52.318;4.644;2022-10-17T11:40:24;1.10;;;1.07;;
10150;SDS011;5116;52.318;4.644;2022-10-17T11:45:22;1.33;;;1.23;;
10150;SDS011;5116;52.318;4.644;2022-10-17T11:47:57;0.90;;;0.90;;
10150;SDS011;5116;52.318;4.644;2022-10-17T11:50:29;1.37;;;1.20;;
10150;SDS011;5116;52.318;4.644;2022-10-17T11:53:23;1.10;;;1.10;;
10150;SDS011;5116;52.318;4.644;2022-10-17T11:55:52;1.30;;;1.20;;
10150;SDS011;5116;52.318;4.644;2022-10-17T11:58:44;1.20;;;1.10;;
10150;SDS011;5116;52.318;4.644;2022-10-17T12:01:12;1.30;;;1.20;;
10150;SDS011;5116;52.318;4.644;2022-10-17T12:11:48;1.00;;;1.00;;
10150;SDS011;5116;52.318;4.644;2022-10-17T12:14:38;1.30;;;1.20;;
10150;SDS011;5116;52.318;4.644;2022-10-17T12:19:48;1.40;;;1.30;;
10150;SDS011;5116;52.318;4.644;2022-10-17T12:22:23;1.40;;;1.30;;
10150;SDS011;5116;52.318;4.644;2022-10-17T12:27:35;1.10;;;1.10;;
10150;SDS011;5116;52.318;4.644;2022-10-17T12:30:04;1.30;;;1.20;;
10150;SDS011;5116;52.318;4.644;2022-10-17T12:32:32;1.00;;;1.00;;
10150;SDS011;5116;52.318;4.644;2022-10-17T12:35:21;1.00;;;1.00;;
10150;SDS011;5116;52.318;4.644;2022-10-17T12:43:01;1.10;;;1.10;;
10150;SDS011;5116;52.318;4.644;2022-10-17T12:51:07;1.40;;;1.30;;
10150;SDS011;5116;52.318;4.644;2022-10-17T12:54:01;3.40;;;1.10;;
10150;SDS011;5116;52.318;4.644;2022-10-17T12:56:38;1.57;;;1.47;;
10150;SDS011;5116;52.318;4.644;2022-10-17T13:02:02;1.27;;;1.17;;
10150;SDS011;5116;52.318;4.644;2022-10-17T13:04:30;1.17;;;1.10;;
10150;SDS011;5116;52.318;4.644;2022-10-17T13:06:57;1.30;;;1.20;;
10150;SDS011;5116;52.318;4.644;2022-10-17T13:09:31;1.27;;;1.17;;
10150;SDS011;5116;52.318;4.644;2022-10-17T13:11:59;1.63;;;1.23;;
10150;SDS011;5116;52.318;4.644;2022-10-17T13:14:27;1.13;;;1.10;;
10150;SDS011;5116;52.318;4.644;2022-10-17T13:16:56;1.40;;;1.30;;
10150;SDS011;5116;52.318;4.644;2022-10-17T13:19:57;1.07;;;1.07;;
10150;SDS011;5116;52.318;4.644;2022-10-17T13:22:25;1.40;;;1.30;;
10150;SDS011;5116;52.318;4.644;2022-10-17T13:25:04;1.73;;;1.40;;
10150;SDS011;5116;52.318;4.644;2022-10-17T13:27:33;1.13;;;1.13;;
10150;SDS011;5116;52.318;4.644;2022-10-17T13:30:02;1.20;;;1.10;;
10150;SDS011;5116;52.318;4.644;2022-10-17T13:32:46;0.93;;;0.93;;
10150;SDS011;5116;52.318;4.644;2022-10-17T13:35:15;1.60;;;1.30;;
10150;SDS011;5116;52.318;4.644;2022-10-17T13:37:45;1.03;;;1.00;;
10150;SDS011;5116;52.318;4.644;2022-10-17T13:40:20;1.03;;;1.00;;
10150;SDS011;5116;52.318;4.644;2022-10-17T13:43:15;1.20;;;1.10;;
10150;SDS011;5116;52.318;4.644;2022-10-17T13:45:44;1.30;;;1.20;;
10150;SDS011;5116;52.318;4.644;2022-10-17T13:48:20;1.50;;;1.20;;
10150;SDS011;5116;52.318;4.644;2022-10-17T13:50:49;1.10;;;1.10;;
10150;SDS011;5116;52.318;4.644;2022-10-17T13:55:57;1.57;;;1.27;;
10150;SDS011;5116;52.318;4.644;2022-10-17T13:58:46;1.00;;;1.00;;
10150;SDS011;5116;52.318;4.644;2022-10-17T14:01:14;1.50;;;1.20;;
10150;SDS011;5116;52.318;4.644;2022-10-17T14:03:45;1.50;;;1.23;;
10150;SDS011;5116;52.318;4.644;2022-10-17T14:06:21;1.00;;;1.00;;
10150;SDS011;5116;52.318;4.644;2022-10-17T14:11:25;1.30;;;1.20;;
10150;SDS011;5116;52.318;4.644;2022-10-17T14:13:53;1.17;;;1.10;;
10150;SDS011;5116;52.318;4.644;2022-10-17T14:16:22;1.10;;;1.10;;
10150;SDS011;5116;52.318;4.644;2022-10-17T14:18:51;3.03;;;1.10;;
10150;SDS011;5116;52.318;4.644;2022-10-17T14:21:23;0.90;;;0.90;;
10150;SDS011;5116;52.318;4.644;2022-10-17T14:26:50;0.90;;;0.90;;
10150;SDS011;5116;52.318;4.644;2022-10-17T14:31:49;1.00;;;1.00;;
10150;SDS011;5116;52.318;4.644;2022-10-17T14:34:19;0.93;;;0.93;;
10150;SDS011;5116;52.318;4.644;2022-10-17T14:36:48;0.90;;;0.90;;
10150;SDS011;5116;52.318;4.644;2022-10-17T14:39:17;1.07;;;1.07;;
10150;SDS011;5116;52.318;4.644;2022-10-17T14:41:45;1.47;;;1.03;;
10150;SDS011;5116;52.318;4.644;2022-10-17T14:44:29;1.20;;;1.10;;
10150;SDS011;5116;52.318;4.644;2022-10-17T14:47:13;1.13;;;1.03;;
10150;SDS011;5116;52.318;4.644;2022-10-17T14:50:15;1.10;;;1.10;;
10150;SDS011;5116;52.318;4.644;2022-10-17T14:52:59;1.27;;;1.10;;
10150;SDS011;5116;52.318;4.644;2022-10-17T14:55:27;1.20;;;1.10;;
10150;SDS011;5116;52.318;4.644;2022-10-17T14:57:55;1.10;;;1.10;;
10150;SDS011;5116;52.318;4.644;2022-10-17T15:00:22;1.40;;;1.10;;
10150;SDS011;5116;52.318;4.644;2022-10-17T15:02:50;1.40;;;1.20;;
10150;SDS011;5116;52.318;4.644;2022-10-17T15:05:18;1.30;;;1.20;;
10150;SDS011;5116;52.318;4.644;2022-10-17T15:07:46;1.30;;;1.20;;
10150;SDS011;5116;52.318;4.644;2022-10-17T15:10:20;1.47;;;1.37;;
10150;SDS011;5116;52.318;4.644;2022-10-17T15:12:49;1.30;;;1.20;;
10150;SDS011;5116;52.318;4.644;2022-10-17T15:15:30;2.97;;;1.20;;
10150;SDS011;5116;52.318;4.644;2022-10-17T15:17:58;1.97;;;1.00;;
10150;SDS011;5116;52.318;4.644;2022-10-17T15:20:26;1.20;;;1.10;;
10150;SDS011;5116;52.318;4.644;2022-10-17T15:22:57;2.43;;;1.20;;
10150;SDS011;5116;52.318;4.644;2022-10-17T15:25:25;1.70;;;1.20;;
10150;SDS011;5116;52.318;4.644;2022-10-17T15:27:52;1.23;;;1.10;;
10150;SDS011;5116;52.318;4.644;2022-10-17T15:30:21;1.30;;;1.20;;
10150;SDS011;5116;52.318;4.644;2022-10-17T15:32:49;1.27;;;1.17;;
10150;SDS011;5116;52.318;4.644;2022-10-17T15:35:17;1.00;;;1.00;;
10150;SDS011;5116;52.318;4.644;2022-10-17T15:37:44;0.93;;;0.90;;
10150;SDS011;5116;52.318;4.644;2022-10-17T15:40:13;2.10;;;1.30;;
10150;SDS011;5116;52.318;4.644;2022-10-17T15:42:40;1.10;;;1.10;;
10150;SDS011;5116;52.318;4.644;2022-10-17T15:45:12;1.20;;;1.10;;
10150;SDS011;5116;52.318;4.644;2022-10-17T15:47:41;1.10;;;1.10;;
10150;SDS011;5116;52.318;4.644;2022-10-17T15:50:11;1.10;;;1.00;;
10150;SDS011;5116;52.318;4.644;2022-10-17T15:52:39;1.07;;;1.07;;
10150;SDS011;5116;52.318;4.644;2022-10-17T15:55:07;0.93;;;0.87;;
10150;SDS011;5116;52.318;4.644;2022-10-17T15:57:35;1.00;;;1.00;;
10150;SDS011;5116;52.318;4.644;2022-10-17T16:00:04;1.50;;;1.40;;
10150;SDS011;5116;52.318;4.644;2022-10-17T16:02:34;1.10;;;1.10;;
10150;SDS011;5116;52.318;4.644;2022-10-17T16:05:04;1.23;;;1.13;;
10150;SDS011;5116;52.318;4.644;2022-10-17T16:07:35;1.77;;;1.30;;
10150;SDS011;5116;52.318;4.644;2022-10-17T16:10:02;2.00;;;1.10;;
10150;SDS011;5116;52.318;4.644;2022-10-17T16:12:30;3.00;;;1.07;;
10150;SDS011;5116;52.318;4.644;2022-10-17T16:15:02;1.43;;;1.27;;
10150;SDS011;5116;52.318;4.644;2022-10-17T16:17:29;1.07;;;1.07;;
10150;SDS011;5116;52.318;4.644;2022-10-17T16:19:57;1.47;;;1.37;;
10150;SDS011;5116;52.318;4.644;2022-10-17T16:22:31;1.27;;;1.17;;
10150;SDS011;5116;52.318;4.644;2022-10-17T16:25:05;1.20;;;1.10;;
10150;SDS011;5116;52.318;4.644;2022-10-17T16:27:35;1.13;;;1.10;;
10150;SDS011;5116;52.318;4.644;2022-10-17T16:30:03;1.40;;;1.30;;
10150;SDS011;5116;52.318;4.644;2022-10-17T16:32:31;1.13;;;1.03;;
10150;SDS011;5116;52.318;4.644;2022-10-17T16:34:58;1.10;;;1.10;;
10150;SDS011;5116;52.318;4.644;2022-10-17T16:37:26;1.00;;;1.00;;
10150;SDS011;5116;52.318;4.644;2022-10-17T16:39:54;2.33;;;1.27;;
10150;SDS011;5116;52.318;4.644;2022-10-17T16:42:21;0.90;;;0.90;;
10150;SDS011;5116;52.318;4.644;2022-10-17T16:44:49;1.10;;;1.00;;
10150;SDS011;5116;52.318;4.644;2022-10-17T16:47:17;1.00;;;1.00;;
10150;SDS011;5116;52.318;4.644;2022-10-17T16:49:44;1.30;;;1.20;;
10150;SDS011;5116;52.318;4.644;2022-10-17T16:52:11;1.17;;;1.07;;
10150;SDS011;5116;52.318;4.644;2022-10-17T16:54:39;2.07;;;1.60;;
10150;SDS011;5116;52.318;4.644;2022-10-17T16:57:06;1.43;;;1.33;;